Time;durP1;ratioP1;P1;durP2;ratioP2;P2;SDS_P1;SDS_P2;PMS_P1;PMS_P2;Temp;Humidity;BMP_temperature;BMP_pressure;BME280_temperature;BME280_humidity;BME280_pressure;Samples;Min_cycle;Max_cycle;Signal;HPM_P1;HPM_P2
2021/09/25 00:01:57;;;;;;;9.63;4.80;;;;;;;16.10;55.88;98098.56;8447728;28;20408;-64
2021/09/25 00:06:03;;;;;;;6.67;4.60;;;;;;;16.07;56.04;98098.75;8448456;28;20198;-63
2021/09/25 00:10:07;;;;;;;7.23;4.50;;;;;;;16.05;55.99;98093.66;8448544;28;20202;-63
2021/09/25 00:14:12;;;;;;;9.68;4.95;;;;;;;16.31;55.60;98091.09;8447699;28;20414;-63
2021/09/25 00:18:15;;;;;;;8.33;4.83;;;;;;;16.03;56.46;98095.53;8448484;28;20476;-63
2021/09/25 00:22:19;;;;;;;6.53;4.50;;;;;;;16.01;56.79;98097.38;8448401;28;20417;-64
2021/09/25 00:26:26;;;;;;;9.20;4.43;;;;;;;15.94;56.56;98098.72;8448637;28;20198;-63
2021/09/25 00:30:29;;;;;;;6.43;4.37;;;;;;;15.95;56.56;98095.16;8454345;28;20513;-64
2021/09/25 00:34:32;;;;;;;9.87;4.23;;;;;;;15.91;56.63;98096.31;8454129;28;20410;-64
2021/09/25 00:38:37;;;;;;;7.87;4.40;;;;;;;16.21;55.57;98091.72;8453341;28;20421;-63
2021/09/25 00:42:40;;;;;;;5.77;4.67;;;;;;;15.91;57.09;98096.31;8453782;28;20233;-63
2021/09/25 00:46:43;;;;;;;9.10;4.60;;;;;;;15.88;56.84;98094.75;8453775;28;20232;-63
2021/09/25 00:50:46;;;;;;;7.23;4.93;;;;;;;15.87;57.13;98093.06;8453906;28;20273;-63
2021/09/25 00:54:50;;;;;;;6.23;4.40;;;;;;;15.78;57.52;98086.66;8453529;28;20205;-63
2021/09/25 00:58:53;;;;;;;8.33;4.87;;;;;;;15.85;57.22;98088.88;8453305;28;20211;-64
2021/09/25 01:02:58;;;;;;;9.23;5.20;;;;;;;15.77;57.09;98084.97;8453583;28;20222;-63
2021/09/25 01:07:01;;;;;;;10.80;5.30;;;;;;;15.79;57.14;98088.31;8453093;28;20217;-64
2021/09/25 01:11:06;;;;;;;11.00;5.07;;;;;;;15.69;57.64;98089.81;8452968;28;20203;-64
2021/09/25 01:15:09;;;;;;;5.70;5.10;;;;;;;15.70;57.70;98077.59;8452953;28;20198;-64
2021/09/25 01:19:12;;;;;;;7.20;5.30;;;;;;;15.75;57.81;98073.78;8452708;28;20198;-64
2021/09/25 01:23:17;;;;;;;7.33;5.30;;;;;;;15.67;58.31;98073.41;8452554;28;20226;-64
2021/09/25 01:27:19;;;;;;;7.80;5.77;;;;;;;15.61;59.00;98077.25;8452562;28;20217;-64
2021/09/25 01:31:23;;;;;;;7.10;5.53;;;;;;;15.60;58.80;98077.34;8452526;28;20383;-64
2021/09/25 01:35:26;;;;;;;10.43;6.13;;;;;;;15.60;59.31;98072.94;8452104;28;20289;-64
2021/09/25 01:39:30;;;;;;;10.07;6.10;;;;;;;15.50;59.46;98076.22;8451742;28;20200;-64
2021/09/25 01:43:34;;;;;;;7.57;6.10;;;;;;;15.34;59.61;98078.97;8451876;28;20222;-62
2021/09/25 01:47:39;;;;;;;8.03;6.33;;;;;;;15.25;59.92;98077.78;8451876;28;20198;-62
2021/09/25 01:51:42;;;;;;;7.17;5.77;;;;;;;15.40;59.03;98083.78;8451748;28;20206;-62
2021/09/25 01:55:46;;;;;;;11.30;6.27;;;;;;;15.35;59.35;98083.25;8451420;28;20245;-62
2021/09/25 01:59:49;;;;;;;9.10;5.77;;;;;;;15.33;58.88;98072.91;8451354;28;20198;-62
2021/09/25 02:03:52;;;;;;;6.53;5.83;;;;;;;15.40;58.85;98078.56;8451064;28;20226;-62
2021/09/25 02:07:55;;;;;;;8.07;5.63;;;;;;;15.42;58.83;98074.94;8451296;28;20205;-62
2021/09/25 02:11:59;;;;;;;7.93;5.67;;;;;;;15.43;58.52;98078.41;8451059;28;20202;-62
2021/09/25 02:16:02;;;;;;;8.63;5.60;;;;;;;15.38;58.75;98075.22;8451006;28;20519;-62
2021/09/25 02:20:07;;;;;;;7.00;5.47;;;;;;;15.41;58.20;98073.25;8450661;28;20198;-62
2021/09/25 02:24:10;;;;;;;6.23;5.10;;;;;;;15.30;57.76;98064.44;8450774;28;20198;-62
2021/09/25 02:28:14;;;;;;;7.50;5.43;;;;;;;15.32;58.55;98066.00;8450670;28;20198;-62
2021/09/25 02:32:17;;;;;;;7.23;5.50;;;;;;;15.31;58.49;98066.97;8450372;28;20490;-62
2021/09/25 02:36:20;;;;;;;6.23;5.43;;;;;;;15.27;58.11;98070.69;8450446;28;20209;-62
2021/09/25 02:40:24;;;;;;;11.00;5.87;;;;;;;15.28;58.42;98079.34;8449955;28;20202;-62
2021/09/25 02:44:28;;;;;;;8.13;5.70;;;;;;;15.26;59.01;98076.81;8450107;28;20203;-62
2021/09/25 02:48:31;;;;;;;10.67;6.20;;;;;;;14.80;60.90;98072.63;8450149;28;20205;-62
2021/09/25 02:52:34;;;;;;;8.47;5.70;;;;;;;15.05;60.22;98073.75;8449383;28;20535;-62
2021/09/25 02:56:37;;;;;;;6.83;6.13;;;;;;;15.12;59.99;98072.47;8449564;28;20227;-62
2021/09/25 03:00:41;;;;;;;9.90;6.20;;;;;;;15.17;59.48;98074.78;8449647;28;20238;-62
2021/09/25 03:04:44;;;;;;;6.93;6.23;;;;;;;15.07;60.01;98073.69;8449687;28;20240;-62
2021/09/25 03:08:47;;;;;;;9.03;5.87;;;;;;;15.01;60.14;98082.72;8449543;28;20199;-62
2021/09/25 03:12:50;;;;;;;10.60;6.20;;;;;;;15.11;59.82;98080.38;8449591;28;20203;-62
2021/09/25 03:16:55;;;;;;;10.73;5.63;;;;;;;15.03;59.90;98084.28;8449630;28;20376;-62
2021/09/25 03:20:58;;;;;;;8.90;6.20;;;;;;;15.09;59.36;98082.25;8449262;28;20253;-62
2021/09/25 03:25:07;;;;;;;10.03;6.07;;;;;;;15.03;59.64;98084.28;8449398;28;20198;-62
2021/09/25 03:29:10;;;;;;;10.43;6.13;;;;;;;15.09;59.14;98083.06;8449256;28;20202;-62
2021/09/25 03:33:14;;;;;;;10.33;6.07;;;;;;;15.09;59.38;98090.06;8448980;28;20225;-62
2021/09/25 03:37:17;;;;;;;9.43;5.83;;;;;;;15.09;59.22;98085.69;8448188;28;20203;-62
2021/09/25 03:41:20;;;;;;;7.77;6.20;;;;;;;15.15;59.02;98081.88;8448779;28;20230;-63
2021/09/25 03:45:23;;;;;;;6.97;6.20;;;;;;;14.94;59.94;98086.63;8449199;28;20194;-63
2021/09/25 03:49:27;;;;;;;9.53;5.50;;;;;;;15.01;59.34;98082.72;8449219;28;20199;-63
2021/09/25 03:53:30;;;;;;;8.70;5.70;;;;;;;14.93;59.51;98084.94;8448800;28;20198;-63
2021/09/25 03:57:33;;;;;;;8.43;6.27;;;;;;;14.95;59.27;98086.53;8448974;28;20538;-63
2021/09/25 04:01:36;;;;;;;7.60;5.50;;;;;;;14.97;59.41;98076.84;8450273;28;20226;-63
2021/09/25 04:05:41;;;;;;;7.50;6.00;;;;;;;14.86;59.45;98087.91;8455198;28;20233;-63
2021/09/25 04:09:44;;;;;;;8.97;5.43;;;;;;;14.88;59.61;98082.59;8454872;28;20202;-63
2021/09/25 04:13:46;;;;;;;7.50;5.83;;;;;;;14.88;59.61;98082.59;8455179;28;20202;-63
2021/09/25 04:17:49;;;;;;;8.63;5.70;;;;;;;14.92;59.59;98083.25;8454862;28;20393;-63
2021/09/25 04:21:54;;;;;;;7.60;6.00;;;;;;;14.87;59.50;98086.16;8454676;28;20234;-63
2021/09/25 04:25:57;;;;;;;6.40;5.53;;;;;;;14.63;60.39;98086.66;8454744;28;20211;-63
2021/09/25 04:30:01;;;;;;;8.90;6.63;;;;;;;14.63;60.16;98094.47;8454417;28;20508;-63
2021/09/25 04:34:07;;;;;;;8.57;5.60;;;;;;;14.80;59.61;98100.47;8454051;28;20405;-63
2021/09/25 04:38:15;;;;;;;9.73;6.00;;;;;;;14.73;59.65;98100.00;8454227;28;20206;-63
2021/09/25 04:42:18;;;;;;;8.13;6.20;;;;;;;14.39;60.71;98098.50;8453821;28;20226;-64
2021/09/25 04:46:21;;;;;;;7.73;6.10;;;;;;;14.47;60.74;98098.91;8453872;28;20198;-64
2021/09/25 04:50:29;;;;;;;7.17;5.80;;;;;;;14.60;59.95;98094.69;8453869;28;20205;-64
2021/09/25 04:54:33;;;;;;;8.70;7.30;;;;;;;14.69;59.66;98095.91;8453662;28;20209;-64
2021/09/25 04:58:37;;;;;;;8.17;5.60;;;;;;;14.74;59.70;98095.63;8453394;28;20530;-64
2021/09/25 05:02:40;;;;;;;8.30;5.63;;;;;;;14.69;59.43;98098.50;8452558;28;20222;-64
2021/09/25 05:06:44;;;;;;;6.73;5.57;;;;;;;14.75;59.19;98105.13;8452833;28;20424;-64
2021/09/25 05:10:48;;;;;;;6.47;5.77;;;;;;;14.68;59.42;98103.78;8453133;28;20216;-64
2021/09/25 05:14:51;;;;;;;6.93;6.03;;;;;;;14.74;59.41;98100.84;8452296;28;20231;-64
2021/09/25 05:18:54;;;;;;;6.57;5.87;;;;;;;14.67;59.37;98100.38;8453017;28;20209;-64
2021/09/25 05:22:57;;;;;;;7.53;5.80;;;;;;;14.58;59.72;98106.97;8452662;28;20223;-64
2021/09/25 05:27:01;;;;;;;8.57;5.47;;;;;;;14.65;59.66;98105.66;8451588;28;20513;-64
2021/09/25 05:31:06;;;;;;;8.10;5.90;;;;;;;14.84;58.89;98105.41;8451531;28;20190;-64
2021/09/25 05:35:10;;;;;;;6.23;5.63;;;;;;;14.89;58.89;98099.94;8451276;28;20214;-64
2021/09/25 05:39:12;;;;;;;7.53;6.37;;;;;;;14.92;58.78;98104.94;8451127;28;20198;-64
2021/09/25 05:43:17;;;;;;;7.10;5.87;;;;;;;15.16;58.58;98104.41;8451027;28;20221;-64
2021/09/25 05:47:19;;;;;;;10.50;5.80;;;;;;;15.09;58.65;98105.72;8448704;28;20198;-64
2021/09/25 05:51:22;;;;;;;12.40;6.53;;;;;;;15.13;58.78;98105.44;8450861;28;20195;-64
2021/09/25 05:55:25;;;;;;;6.50;5.60;;;;;;;15.31;58.43;98113.09;8450715;28;20237;-64
2021/09/25 05:59:29;;;;;;;7.73;6.00;;;;;;;15.45;58.22;98113.06;8450618;28;20197;-64
2021/09/25 06:03:35;;;;;;;9.97;5.73;;;;;;;15.64;57.75;98105.75;8447682;28;20233;-64
2021/09/25 06:07:41;;;;;;;7.27;6.17;;;;;;;15.69;57.64;98107.22;8449797;28;20217;-64
2021/09/25 06:11:44;;;;;;;7.77;6.03;;;;;;;15.73;57.64;98109.59;8450768;28;20263;-64
2021/09/25 06:15:49;;;;;;;11.40;5.63;;;;;;;15.95;56.75;98103.00;8450939;28;20198;-64
2021/09/25 06:19:52;;;;;;;8.30;7.40;;;;;;;15.34;58.23;98110.28;8449282;28;20194;-64
2021/09/25 06:23:56;;;;;;;9.53;6.80;;;;;;;15.59;58.00;98100.00;8449555;28;20214;-64
2021/09/25 06:27:58;;;;;;;8.60;6.27;;;;;;;15.95;57.27;98096.00;8448975;28;20191;-64
2021/09/25 06:32:03;;;;;;;9.57;6.60;;;;;;;16.08;57.53;98100.44;8450539;28;20209;-64
2021/09/25 06:36:06;;;;;;;7.93;6.90;;;;;;;16.06;57.04;98104.94;8449533;28;20221;-64
2021/09/25 06:40:11;;;;;;;10.00;7.20;;;;;;;16.26;56.82;98107.09;8449404;28;20367;-64
2021/09/25 06:44:14;;;;;;;9.40;7.07;;;;;;;16.34;56.42;98117.06;8446606;28;20214;-64
2021/09/25 06:48:18;;;;;;;10.37;7.23;;;;;;;16.25;56.79;98115.88;8449441;28;20516;-64
2021/09/25 06:52:21;;;;;;;10.33;6.60;;;;;;;16.52;56.42;98105.34;8450155;28;20202;-64
2021/09/25 06:56:24;;;;;;;8.77;6.23;;;;;;;16.88;56.22;98109.09;8449770;28;20234;-64
2021/09/25 07:00:27;;;;;;;9.83;7.63;;;;;;;17.03;55.58;98103.78;8450037;28;20198;-64
2021/09/25 07:04:31;;;;;;;9.10;7.23;;;;;;;17.28;55.80;98108.97;8448717;28;20218;-64
2021/09/25 07:08:34;;;;;;;8.07;6.97;;;;;;;17.40;55.16;98117.75;8445638;28;20194;-64
2021/09/25 07:12:37;;;;;;;8.10;6.87;;;;;;;17.78;54.79;98111.59;8448493;28;20509;-64
2021/09/25 07:16:42;;;;;;;9.07;7.63;;;;;;;17.78;54.86;98108.97;8449475;28;20198;-64
2021/09/25 07:20:47;;;;;;;9.43;7.20;;;;;;;17.97;54.20;98121.63;8449340;28;20197;-64
2021/09/25 07:24:54;;;;;;;9.07;7.30;;;;;;;18.13;54.31;98121.38;8449398;28;20271;-64
2021/09/25 07:28:57;;;;;;;9.07;8.17;;;;;;;18.23;53.68;98113.66;8449459;28;20209;-64
2021/09/25 07:33:00;;;;;;;10.47;8.13;;;;;;;18.44;54.51;98108.63;8449288;28;20408;-64
2021/09/25 07:37:05;;;;;;;15.27;8.90;;;;;;;18.67;53.58;98112.13;8452629;28;20199;-64
2021/09/25 07:41:08;;;;;;;11.60;7.87;;;;;;;19.28;52.53;98119.78;8455963;28;20209;-63
2021/09/25 07:45:12;;;;;;;9.43;8.27;;;;;;;19.40;52.11;98125.84;8455887;28;20533;-64
2021/09/25 07:49:15;;;;;;;10.43;8.43;;;;;;;19.60;51.59;98132.19;8455492;28;20528;-64
2021/09/25 07:53:19;;;;;;;13.30;8.40;;;;;;;19.98;50.86;98134.41;8454661;28;20232;-64
2021/09/25 07:57:22;;;;;;;9.97;8.97;;;;;;;20.02;51.24;98141.09;8455072;28;20514;-64
2021/09/25 08:01:25;;;;;;;11.20;8.63;;;;;;;20.30;50.80;98146.75;8455064;28;20205;-64
2021/09/25 08:05:28;;;;;;;8.80;7.90;;;;;;;20.91;49.21;98145.31;8454916;28;20251;-64
2021/09/25 08:09:32;;;;;;;9.60;8.30;;;;;;;21.07;49.33;98143.03;8455055;28;20199;-64
2021/09/25 08:13:35;;;;;;;10.90;9.37;;;;;;;21.41;48.02;98138.34;8454979;28;20209;-64
2021/09/25 08:17:38;;;;;;;13.03;9.07;;;;;;;21.77;47.36;98141.44;8454866;28;20416;-64
2021/09/25 08:21:44;;;;;;;9.93;8.30;;;;;;;22.15;46.24;98144.28;8454673;28;20217;-64
2021/09/25 08:25:48;;;;;;;9.83;8.83;;;;;;;22.58;45.64;98148.34;8454694;28;20228;-64
2021/09/25 08:29:51;;;;;;;10.87;9.53;;;;;;;22.77;44.62;98148.38;8454504;28;20380;-64
2021/09/25 08:33:54;;;;;;;13.23;9.10;;;;;;;23.16;44.62;98143.03;8454169;28;20233;-64
2021/09/25 08:37:57;;;;;;;13.10;8.93;;;;;;;23.47;43.75;98142.78;8454021;28;20203;-64
2021/09/25 08:42:01;;;;;;;10.73;9.63;;;;;;;23.62;42.51;98149.25;8453957;28;20206;-64
2021/09/25 08:46:08;;;;;;;12.90;9.67;;;;;;;23.82;42.46;98146.56;8453846;28;20226;-64
2021/09/25 08:50:14;;;;;;;16.50;10.13;;;;;;;24.22;41.54;98142.69;8452835;28;20201;-64
2021/09/25 08:54:17;;;;;;;10.70;9.60;;;;;;;24.65;41.40;98148.22;8453660;28;20194;-64
2021/09/25 08:58:21;;;;;;;11.77;9.20;;;;;;;24.91;39.67;98143.78;8453631;28;20241;-65
2021/09/25 09:02:24;;;;;;;10.70;9.60;;;;;;;25.13;39.21;98153.06;8453429;28;20198;-64
2021/09/25 09:06:29;;;;;;;10.67;9.03;;;;;;;25.34;39.18;98149.22;8453002;28;20223;-64
2021/09/25 09:10:33;;;;;;;12.60;8.87;;;;;;;25.56;39.48;98143.38;8453169;28;20363;-64
2021/09/25 09:14:44;;;;;;;11.23;9.10;;;;;;;25.71;39.28;98134.81;8452974;28;20203;-64
2021/09/25 09:18:51;;;;;;;9.80;8.80;;;;;;;25.88;38.26;98143.66;8452846;28;20520;-65
2021/09/25 09:23:12;;;;;;;15.30;9.40;;;;;;;25.94;38.07;98143.88;8452983;28;20482;-65
2021/09/25 09:27:21;;;;;;;12.13;9.20;;;;;;;25.66;39.75;98142.41;8452965;28;20206;-65
2021/09/25 09:31:25;;;;;;;11.47;8.73;;;;;;;26.12;38.36;98142.91;8452543;28;20208;-65
2021/09/25 09:35:31;;;;;;;10.87;8.43;;;;;;;26.43;37.90;98145.78;8452207;28;20223;-64
2021/09/25 09:39:33;;;;;;;11.43;8.97;;;;;;;26.17;37.95;98139.78;8452545;28;20201;-64
2021/09/25 09:43:37;;;;;;;8.80;7.53;;;;;;;26.59;37.58;98144.16;8452080;28;20227;-64
2021/09/25 09:47:46;;;;;;;9.17;7.93;;;;;;;26.89;36.45;98145.34;8451949;28;20296;-64
2021/09/25 09:51:50;;;;;;;14.13;7.60;;;;;;;26.88;36.77;98136.53;8451577;28;20200;-64
2021/09/25 09:55:53;;;;;;;8.33;7.27;;;;;;;26.94;36.31;98124.41;8451309;28;20247;-65
2021/09/25 09:59:56;;;;;;;8.27;7.40;;;;;;;26.90;35.40;98131.03;8451405;28;20202;-65
2021/09/25 10:04:01;;;;;;;9.07;6.30;;;;;;;27.30;35.51;98122.19;8451098;28;20227;-64
2021/09/25 10:08:05;;;;;;;9.47;6.83;;;;;;;27.55;34.80;98118.59;8451304;28;20208;-64
2021/09/25 10:12:10;;;;;;;7.33;6.47;;;;;;;27.65;35.40;98116.59;8451209;28;20485;-65
2021/09/25 10:16:14;;;;;;;7.67;6.50;;;;;;;27.69;35.20;98117.88;8451204;28;20438;-64
2021/09/25 10:20:18;;;;;;;8.80;7.00;;;;;;;27.30;35.59;98118.69;8450996;28;20273;-65
2021/09/25 10:24:24;;;;;;;7.87;6.97;;;;;;;27.29;34.16;98119.69;8450739;28;20229;-65
2021/09/25 10:28:28;;;;;;;9.73;6.50;;;;;;;27.43;35.58;98105.69;8450611;28;20203;-65
2021/09/25 10:32:33;;;;;;;7.77;6.53;;;;;;;27.48;34.40;98110.50;8450568;28;20200;-65
2021/09/25 10:36:40;;;;;;;8.23;6.43;;;;;;;26.87;34.55;98105.63;8450365;28;20272;-65
2021/09/25 10:40:43;;;;;;;7.13;5.23;;;;;;;27.01;35.07;98095.31;8450324;28;20201;-65
2021/09/25 10:44:48;;;;;;;8.20;5.43;;;;;;;27.27;33.74;98103.09;8450109;28;20235;-65
2021/09/25 10:48:52;;;;;;;7.77;5.30;;;;;;;27.45;33.94;98098.34;8450240;28;20200;-65
2021/09/25 10:53:08;;;;;;;7.70;5.10;;;;;;;27.52;33.41;98103.00;8450395;28;20212;-65
2021/09/25 10:57:17;;;;;;;8.00;5.30;;;;;;;27.52;33.49;98103.81;8449175;28;20231;-65
2021/09/25 11:01:20;;;;;;;6.67;5.00;;;;;;;27.55;33.32;98097.31;8449802;28;20301;-65
2021/09/25 11:05:56;;;;;;;5.97;4.63;;;;;;;27.38;33.70;98089.44;8449514;28;20596;-65
2021/09/25 11:10:00;;;;;;;8.97;4.57;;;;;;;27.55;32.91;98087.53;8449112;28;20502;-65
2021/09/25 11:14:13;;;;;;;11.20;4.97;;;;;;;27.30;33.83;98078.81;8448856;28;20211;-65
2021/09/25 11:18:26;;;;;;;5.67;4.20;;;;;;;27.59;33.28;98086.19;8449645;28;20208;-65
2021/09/25 11:22:31;;;;;;;6.43;5.00;;;;;;;27.63;33.24;98081.34;8449536;28;20207;-65
2021/09/25 11:26:39;;;;;;;4.77;3.80;;;;;;;27.72;31.62;98075.00;8449004;28;20449;-65
2021/09/25 11:30:42;;;;;;;7.03;4.00;;;;;;;27.69;32.03;98073.50;8449466;28;20198;-65
2021/09/25 11:35:08;;;;;;;5.77;4.23;;;;;;;27.78;32.07;98076.09;8449247;28;20418;-65
2021/09/25 11:39:11;;;;;;;4.17;3.40;;;;;;;27.76;31.86;98065.66;8449336;28;20236;-65
2021/09/25 11:43:18;;;;;;;5.47;3.40;;;;;;;27.81;31.35;98065.09;8449157;28;20224;-65
2021/09/25 11:47:25;;;;;;;4.03;3.63;;;;;;;27.59;32.53;98059.59;8449010;28;20225;-65
2021/09/25 11:51:31;;;;;;;5.77;3.90;;;;;;;27.78;31.40;98058.31;8449087;28;20201;-65
2021/09/25 11:55:36;;;;;;;6.50;3.60;;;;;;;27.76;31.34;98056.81;8448838;28;20239;-66
2021/09/25 11:59:40;;;;;;;4.53;3.80;;;;;;;27.64;31.48;98054.56;8448592;28;20202;-65
2021/09/25 12:03:43;;;;;;;5.90;3.60;;;;;;;27.80;31.75;98048.31;8448461;28;20198;-66
2021/09/25 12:07:47;;;;;;;4.40;3.80;;;;;;;27.91;31.28;98055.09;8448792;28;20238;-66
2021/09/25 12:11:50;;;;;;;6.37;3.80;;;;;;;27.91;32.12;98047.09;8448546;28;20215;-65
2021/09/25 12:15:56;;;;;;;6.27;3.40;;;;;;;27.87;32.60;98033.31;8448877;28;20211;-65
2021/09/25 12:20:15;;;;;;;4.10;3.70;;;;;;;27.91;32.33;98038.31;8448817;28;20204;-65
2021/09/25 12:24:18;;;;;;;5.53;3.87;;;;;;;27.93;32.19;98030.97;8452769;28;20224;-65
2021/09/25 12:28:32;;;;;;;7.03;3.93;;;;;;;27.83;32.84;98023.19;8454560;28;20219;-65
2021/09/25 12:32:37;;;;;;;7.77;3.93;;;;;;;27.93;32.84;98022.97;8454301;28;20235;-65
2021/09/25 12:36:42;;;;;;;5.47;3.57;;;;;;;27.94;32.70;98024.66;8454344;28;20205;-65
2021/09/25 12:40:48;;;;;;;7.70;3.93;;;;;;;27.85;32.60;98029.16;8454185;28;20512;-66
2021/09/25 12:44:54;;;;;;;6.43;3.80;;;;;;;27.76;31.98;98023.09;8454049;28;20535;-66
2021/09/25 12:49:34;;;;;;;6.03;3.87;;;;;;;27.80;32.37;98005.75;8454039;28;20231;-66
2021/09/25 12:53:37;;;;;;;4.20;3.60;;;;;;;27.84;32.25;98006.22;8355627;28;20199;-66
2021/09/25 12:57:43;;;;;;;10.47;4.00;;;;;;;27.56;32.41;98004.06;8453393;28;20242;-66
2021/09/25 13:01:52;;;;;;;5.97;3.60;;;;;;;27.57;32.52;98005.75;8453640;28;20409;-66
2021/09/25 13:06:13;;;;;;;4.17;3.43;;;;;;;28.10;32.42;98000.56;8453305;28;20231;-66
2021/09/25 13:10:18;;;;;;;5.60;3.37;;;;;;;28.20;31.61;97995.84;8453355;28;20209;-66
2021/09/25 13:14:29;;;;;;;9.30;4.37;;;;;;;28.05;31.85;97998.44;8453036;28;20503;-66
2021/09/25 13:18:32;;;;;;;5.70;3.43;;;;;;;28.18;31.93;97997.84;8453083;28;20201;-66
2021/09/25 13:22:37;;;;;;;3.63;3.33;;;;;;;28.20;32.38;97997.69;8452690;28;20200;-66
2021/09/25 13:26:40;;;;;;;4.60;3.60;;;;;;;28.18;31.69;97983.69;8452469;28;20234;-66
2021/09/25 13:30:43;;;;;;;4.43;3.50;;;;;;;27.89;31.27;97979.94;8452818;28;20389;-66
2021/09/25 13:34:46;;;;;;;4.07;3.50;;;;;;;28.15;30.87;97962.78;8451827;28;20232;-66
2021/09/25 13:38:50;;;;;;;4.17;3.30;;;;;;;28.24;30.63;97972.34;8452421;28;20250;-66
2021/09/25 13:42:53;;;;;;;5.90;4.27;;;;;;;27.88;32.33;97979.09;8451985;28;20200;-66
2021/09/25 13:46:56;;;;;;;4.43;3.77;;;;;;;27.77;32.34;97978.69;8452139;28;20240;-66
2021/09/25 13:50:59;;;;;;;8.47;4.07;;;;;;;27.66;31.40;97977.25;8451917;28;20216;-66
2021/09/25 13:55:04;;;;;;;3.97;3.57;;;;;;;27.85;31.35;97978.59;8451425;28;20203;-66
2021/09/25 13:59:07;;;;;;;5.80;3.63;;;;;;;27.92;31.47;97971.59;8451931;28;20483;-66
2021/09/25 14:03:10;;;;;;;5.27;3.83;;;;;;;28.01;31.76;97957.22;8451342;28;20207;-66
2021/09/25 14:07:13;;;;;;;6.73;4.20;;;;;;;27.81;31.57;97962.16;8451274;28;20233;-66
2021/09/25 14:11:17;;;;;;;7.20;3.90;;;;;;;27.93;31.78;97957.31;8451288;28;20211;-66
2021/09/25 14:15:21;;;;;;;7.90;3.80;;;;;;;27.85;32.19;97955.50;8451358;28;20212;-66
2021/09/25 14:19:24;;;;;;;7.73;3.40;;;;;;;27.92;32.67;97944.16;8451194;28;20233;-66
2021/09/25 14:23:29;;;;;;;4.47;3.60;;;;;;;27.93;32.41;97949.31;8450785;28;20206;-65
2021/09/25 14:27:36;;;;;;;13.07;4.20;;;;;;;27.80;32.37;97962.38;8450900;28;20235;-70
2021/09/25 14:31:40;;;;;;;9.73;3.80;;;;;;;27.63;32.58;97953.69;8450506;28;20500;-70
2021/09/25 14:35:43;;;;;;;4.50;3.70;;;;;;;27.50;32.60;97952.41;8450488;28;20222;-70
2021/09/25 14:39:47;;;;;;;4.93;4.03;;;;;;;27.47;32.79;97944.81;8450235;28;20199;-70
2021/09/25 14:43:51;;;;;;;4.00;3.43;;;;;;;27.51;32.87;97939.94;8450184;28;20500;-69
2021/09/25 14:47:54;;;;;;;5.57;4.10;;;;;;;27.26;33.13;97939.25;8449070;28;20237;-70
2021/09/25 14:51:58;;;;;;;4.43;3.50;;;;;;;27.45;33.27;97938.00;8449469;28;20518;-69
2021/09/25 14:56:01;;;;;;;5.90;4.07;;;;;;;27.14;32.56;97933.50;8449728;28;20260;-69
2021/09/25 15:00:07;;;;;;;4.20;3.77;;;;;;;27.19;33.70;97932.94;8449560;28;20195;-69
2021/09/25 15:04:10;;;;;;;6.27;3.63;;;;;;;27.06;33.63;97925.56;8449365;28;20199;-69
2021/09/25 15:08:13;;;;;;;4.10;3.70;;;;;;;26.89;33.29;97922.97;8449641;28;20249;-69
2021/09/25 15:12:16;;;;;;;5.47;3.63;;;;;;;26.75;34.04;97922.88;8449422;28;20201;-70
2021/09/25 15:16:20;;;;;;;4.13;3.40;;;;;;;26.77;34.06;97931.50;8449406;28;20204;-69
2021/09/25 15:20:23;;;;;;;9.47;4.20;;;;;;;26.26;34.98;97923.81;8449555;28;20200;-69
2021/09/25 15:24:26;;;;;;;5.07;3.50;;;;;;;26.23;34.75;97924.97;8449573;28;20202;-69
2021/09/25 15:28:29;;;;;;;6.40;3.60;;;;;;;26.01;35.31;97920.34;8449040;28;20230;-69
2021/09/25 15:32:33;;;;;;;8.57;4.63;;;;;;;25.79;35.10;97924.47;8449083;28;20199;-69
2021/09/25 15:36:36;;;;;;;4.17;3.77;;;;;;;25.51;35.59;97916.81;8449279;28;20212;-68
2021/09/25 15:40:40;;;;;;;5.43;4.60;;;;;;;25.55;35.63;97921.66;8449168;28;20200;-68
2021/09/25 15:44:42;;;;;;;5.93;4.80;;;;;;;25.46;35.76;97922.63;8448962;28;20207;-69
2021/09/25 15:48:47;;;;;;;4.77;3.90;;;;;;;25.24;35.98;97915.31;8448988;28;20388;-68
2021/09/25 15:52:50;;;;;;;6.27;4.17;;;;;;;25.08;36.42;97919.53;8449100;28;20205;-68
2021/09/25 15:56:53;;;;;;;4.37;3.90;;;;;;;24.91;37.19;97920.47;8449207;28;20234;-69
2021/09/25 16:00:56;;;;;;;6.50;4.60;;;;;;;24.87;37.31;97919.16;8455196;28;20227;-69
2021/09/25 16:05:01;;;;;;;5.73;4.27;;;;;;;24.70;37.47;97919.06;8454235;28;20295;-69
2021/09/25 16:09:04;;;;;;;8.00;4.70;;;;;;;24.60;38.54;97918.38;8454215;28;20227;-69
2021/09/25 16:13:07;;;;;;;7.17;5.13;;;;;;;24.48;38.41;97927.53;8452842;28;20203;-69
2021/09/25 16:17:10;;;;;;;6.43;4.83;;;;;;;24.37;39.17;97932.09;8453948;28;20209;-69
2021/09/25 16:21:14;;;;;;;5.20;4.70;;;;;;;24.29;39.09;97925.91;8453851;28;20198;-68
2021/09/25 16:25:17;;;;;;;7.37;4.97;;;;;;;24.16;40.38;97939.56;8451393;28;20197;-68
2021/09/25 16:29:25;;;;;;;7.60;4.60;;;;;;;24.05;41.27;97931.91;8453656;28;20197;-68
2021/09/25 16:33:28;;;;;;;6.60;4.43;;;;;;;23.95;41.89;97929.31;8452680;28;20218;-68
2021/09/25 16:37:33;;;;;;;14.43;5.00;;;;;;;23.87;42.40;97939.84;8453326;28;20487;-68
2021/09/25 16:41:35;;;;;;;7.83;4.90;;;;;;;23.69;42.96;97930.09;8447573;28;20517;-68
2021/09/25 16:45:42;;;;;;;6.07;4.80;;;;;;;23.65;42.75;97926.09;8451210;28;20218;-68
2021/09/25 16:49:46;;;;;;;10.97;4.83;;;;;;;23.55;43.10;97935.88;8450532;28;20199;-68
2021/09/25 16:53:50;;;;;;;16.57;4.90;;;;;;;23.44;44.22;97936.97;8452092;28;20385;-68
2021/09/25 16:57:53;;;;;;;8.70;4.83;;;;;;;23.30;44.27;97938.28;8451827;28;20229;-68
2021/09/25 17:01:56;;;;;;;7.27;4.63;;;;;;;23.21;44.65;97942.66;8448259;28;20397;-68
2021/09/25 17:06:00;;;;;;;10.20;4.90;;;;;;;23.17;44.57;97940.47;8450692;28;20229;-68
2021/09/25 17:10:05;;;;;;;7.43;4.70;;;;;;;23.23;44.58;97950.44;8450194;28;20202;-68
2021/09/25 17:14:08;;;;;;;5.43;4.70;;;;;;;23.13;44.86;97961.06;8449488;28;20194;-69
2021/09/25 17:18:11;;;;;;;9.57;5.13;;;;;;;22.96;45.93;97964.44;8451793;28;20206;-69
2021/09/25 17:22:15;;;;;;;10.87;7.20;;;;;;;22.92;46.46;97963.91;8450961;28;20198;-69
2021/09/25 17:26:21;;;;;;;9.53;7.20;;;;;;;22.79;47.69;97969.53;8451739;28;20231;-68
2021/09/25 17:30:24;;;;;;;15.90;11.93;;;;;;;22.71;48.19;97965.94;8452805;28;20198;-68
2021/09/25 17:34:26;;;;;;;20.20;16.10;;;;;;;22.58;48.50;97967.13;8452568;28;20226;-68
2021/09/25 17:38:29;;;;;;;21.93;16.50;;;;;;;22.51;48.78;97965.19;8451794;28;20201;-67
2021/09/25 17:42:34;;;;;;;25.07;18.10;;;;;;;22.43;49.47;97958.00;8449798;28;20198;-67
2021/09/25 17:46:37;;;;;;;36.47;28.03;;;;;;;22.32;49.72;97951.06;8451888;28;20226;-68
2021/09/25 17:50:42;;;;;;;34.53;25.35;;;;;;;22.39;49.71;97952.19;8450848;28;20476;-68
2021/09/25 17:54:45;;;;;;;18.53;15.00;;;;;;;22.16;49.58;97945.50;8450520;28;20190;-69
2021/09/25 17:58:54;;;;;;;14.90;10.60;;;;;;;22.12;49.03;97946.78;8447434;28;20228;-68
2021/09/25 18:02:57;;;;;;;14.63;8.60;;;;;;;22.02;48.68;97949.44;8448746;28;20194;-68
2021/09/25 18:07:00;;;;;;;12.17;7.87;;;;;;;21.91;49.10;97949.56;8450989;28;20249;-68
2021/09/25 18:11:03;;;;;;;10.13;7.90;;;;;;;21.83;48.99;97951.09;8450324;28;20194;-68
2021/09/25 18:15:10;;;;;;;11.07;6.87;;;;;;;21.79;48.54;97948.91;8449657;28;20198;-68
2021/09/25 18:19:14;;;;;;;9.83;6.23;;;;;;;21.76;48.21;97946.53;8449945;28;20214;-68
2021/09/25 18:23:18;;;;;;;24.87;7.17;;;;;;;21.65;48.18;97950.97;8450793;28;20198;-68
2021/09/25 18:27:23;;;;;;;8.23;6.50;;;;;;;21.64;47.92;97943.19;8450798;28;20264;-68
2021/09/25 18:31:27;;;;;;;10.20;7.17;;;;;;;21.61;48.50;97954.00;8450763;28;20198;-68
2021/09/25 18:35:32;;;;;;;9.67;6.80;;;;;;;21.53;48.60;97959.13;8450442;28;20376;-68
2021/09/25 18:39:35;;;;;;;15.90;9.97;;;;;;;21.44;49.05;97964.28;8450425;28;20202;-68
2021/09/25 18:43:38;;;;;;;19.77;13.00;;;;;;;21.36;49.74;97968.50;8450141;28;20205;-68
2021/09/25 18:47:42;;;;;;;16.53;12.43;;;;;;;21.26;50.34;97974.59;8449894;28;20229;-68
2021/09/25 18:51:45;;;;;;;27.93;16.00;;;;;;;21.32;50.42;97967.94;8448820;28;20190;-68
2021/09/25 18:55:51;;;;;;;21.40;15.70;;;;;;;21.25;50.77;97972.13;8446997;28;20225;-67
2021/09/25 18:59:54;;;;;;;21.50;16.93;;;;;;;21.06;51.55;97960.56;8448466;28;20198;-68
2021/09/25 19:03:58;;;;;;;33.20;16.10;;;;;;;21.05;51.72;97966.78;8449261;28;20194;-69
2021/09/25 19:08:02;;;;;;;19.80;15.40;;;;;;;21.00;51.95;97976.91;8449789;28;20247;-67